Time;durP1;ratioP1;P1;durP2;ratioP2;P2;SDS_P1;SDS_P2;PMS_P1;PMS_P2;Temp;Humidity;BMP_temperature;BMP_pressure;BME280_temperature;BME280_humidity;BME280_pressure;Samples;Min_cycle;Max_cycle;Signal;HPM_P1;HPM_P2
2022/10/27 00:01:22;;;;;;;;;;;;;;;10.03;100.00;99996.08;1685729;84;20675;-85
2022/10/27 00:03:50;;;;;;;;;;;;;;;10.05;100.00;99998.67;1685832;84;20626;-86
2022/10/27 00:06:18;;;;;;;;;;;;;;;10.06;100.00;99996.93;1685688;84;21650;-84
2022/10/27 00:08:45;;;;;;;;;;;;;;;10.06;100.00;100002.19;1685720;84;20167;-84
2022/10/27 00:11:12;;;;;;;;;;;;;;;10.08;100.00;100003.01;1685825;85;20140;-83
2022/10/27 00:13:38;;;;;;;;;;;;;;;10.10;100.00;100001.20;1685914;85;20207;-83
2022/10/27 00:16:08;;;;;;;;;;;;;;;10.09;100.00;100001.66;1686068;85;20356;-85
2022/10/27 00:18:35;;;;;;;;;;;;;;;10.08;100.00;99997.29;1685786;85;21165;-86
2022/10/27 00:21:03;;;;;;;;;;;;;;;10.07;100.00;100003.90;1685748;85;20315;-85
2022/10/27 00:23:31;;;;;;;;;;;;;;;10.04;100.00;100001.77;1685878;84;20153;-84
2022/10/27 00:25:57;;;;;;;;;;;;;;;10.04;100.00;99997.82;1686103;84;20223;-85
2022/10/27 00:28:24;;;;;;;;;;;;;;;10.04;100.00;100008.34;1685776;85;20195;-85
2022/10/27 00:31:03;;;;;;;;;;;;;;;10.06;100.00;100017.97;1685725;85;21141;-82
2022/10/27 00:33:30;;;;;;;;;;;;;;;10.04;100.00;100016.22;1685439;84;20206;-85
2022/10/27 00:35:56;;;;;;;;;;;;;;;10.03;100.00;100013.17;1686014;84;20199;-85
2022/10/27 00:38:23;;;;;;;;;;;;;;;10.03;100.00;100022.38;1685896;84;20866;-85
2022/10/27 00:40:51;;;;;;;;;;;;;;;10.03;100.00;100026.31;1685630;85;20202;-84
2022/10/27 00:43:32;;;;;;;;;;;;;;;10.02;100.00;100025.92;1685712;85;21974;-83
2022/10/27 00:46:20;;;;;;;;;;;;;;;10.03;100.00;100030.26;1685187;85;20226;-83
2022/10/27 00:48:47;;;;;;;;;;;;;;;10.01;100.00;100021.55;1684340;84;20207;-85
2022/10/27 00:51:15;;;;;;;;;;;;;;;10.04;100.00;100023.26;1685903;85;20527;-86
2022/10/27 00:53:42;;;;;;;;;;;;;;;10.04;100.00;100024.11;1685825;85;20253;-81
2022/10/27 00:56:08;;;;;;;;;;;;;;;10.03;100.00;100027.63;1685728;85;21107;-84
2022/10/27 00:58:35;;;;;;;;;;;;;;;10.02;100.00;100029.86;1686351;85;20127;-84
2022/10/27 01:01:01;;;;;;;;;;;;;;;10.04;100.00;100032.00;1686571;85;20223;-85
2022/10/27 01:03:28;;;;;;;;;;;;;;;10.04;100.00;100032.00;1687106;83;20809;-83
2022/10/27 01:05:54;;;;;;;;;;;;;;;10.04;100.00;100035.94;1684551;85;20235;-86
2022/10/27 01:08:22;;;;;;;;;;;;;;;10.00;100.00;100032.10;1683855;85;21110;-86
2022/10/27 01:10:49;;;;;;;;;;;;;;;10.00;100.00;100039.98;1683840;85;20207;-86
2022/10/27 01:13:16;;;;;;;;;;;;;;;10.00;100.00;100042.62;1683683;85;20180;-85
2022/10/27 01:16:10;;;;;;;;;;;;;;;10.00;100.00;100040.87;1683754;85;20194;-86
2022/10/27 01:18:49;;;;;;;;;;;;;;;9.99;100.00;100048.80;1683657;85;20564;-86
2022/10/27 01:21:40;;;;;;;;;;;;;;;9.94;100.00;100048.89;1683498;85;21163;-83
2022/10/27 01:24:13;;;;;;;;;;;;;;;9.92;100.00;100047.19;1683616;85;20192;-85
2022/10/27 01:26:54;;;;;;;;;;;;;;;9.86;100.00;100056.09;1683657;85;20214;-86
2022/10/27 01:29:39;;;;;;;;;;;;;;;9.83;100.00;100056.16;1681261;85;20186;-82
2022/10/27 01:32:24;;;;;;;;;;;;;;;9.82;100.00;100059.70;1683622;85;20591;-84
2022/10/27 01:35:28;;;;;;;;;;;;;;;9.78;100.00;100060.66;1683734;85;21199;-85
2022/10/27 01:38:05;;;;;;;;;;;;;;;9.76;100.00;100052.80;1683675;85;20422;-85
2022/10/27 01:40:38;;;;;;;;;;;;;;;9.72;100.00;100059.04;1683862;85;20377;-84
2022/10/27 01:43:08;;;;;;;;;;;;;;;9.72;100.00;100062.12;1683844;85;20180;-84
2022/10/27 01:45:35;;;;;;;;;;;;;;;9.70;100.00;100058.64;1683581;85;20798;-86
2022/10/27 01:48:02;;;;;;;;;;;;;;;9.70;100.00;100059.95;1683865;85;21147;-84
2022/10/27 01:50:31;;;;;;;;;;;;;;;9.69;100.00;100063.50;1662427;85;20198;-86
2022/10/27 01:52:57;;;;;;;;;;;;;;;9.67;100.00;100064.84;1684048;85;20215;-81
2022/10/27 01:55:27;;;;;;;;;;;;;;;9.65;100.00;100071.45;1683865;85;21001;-83
2022/10/27 01:58:03;;;;;;;;;;;;;;;9.65;100.00;100072.77;1684018;85;20241;-86
2022/10/27 02:00:31;;;;;;;;;;;;;;;9.66;100.00;100073.16;1683596;83;21137;-85
2022/10/27 02:03:06;;;;;;;;;;;;;;;9.66;100.00;100081.04;1683833;84;20571;-83
2022/10/27 02:05:45;;;;;;;;;;;;;;;9.64;100.00;100085.47;1685799;85;20203;-85
2022/10/27 02:08:36;;;;;;;;;;;;;;;9.63;100.00;100078.50;1685862;84;20706;-85
2022/10/27 02:11:04;;;;;;;;;;;;;;;9.59;100.00;100087.80;1685776;84;20095;-86
2022/10/27 02:13:31;;;;;;;;;;;;;;;9.56;100.00;100094.42;1686054;85;21893;-86
2022/10/27 02:16:10;;;;;;;;;;;;;;;9.55;100.00;100092.25;1685653;85;20651;-84
2022/10/27 02:18:39;;;;;;;;;;;;;;;9.56;100.00;100091.80;1686058;84;20179;-84
2022/10/27 02:21:06;;;;;;;;;;;;;;;9.58;100.00;100104.02;1685898;85;20719;-85
2022/10/27 02:23:32;;;;;;;;;;;;;;;9.60;100.00;100099.59;1686253;85;20154;-85
2022/10/27 02:26:20;;;;;;;;;;;;;;;9.62;100.00;100103.04;1685857;85;21301;-85
2022/10/27 02:28:53;;;;;;;;;;;;;;;9.64;100.00;100105.17;1686066;85;20216;-85
2022/10/27 02:31:22;;;;;;;;;;;;;;;9.65;100.00;100101.66;1685820;84;20188;-83
2022/10/27 02:33:48;;;;;;;;;;;;;;;9.67;100.00;100107.74;1684697;84;20188;-77
2022/10/27 02:36:15;;;;;;;;;;;;;;;9.71;100.00;100106.37;1685767;85;20152;-85
2022/10/27 02:38:43;;;;;;;;;;;;;;;9.73;100.00;100112.45;1684354;84;21158;-85
2022/10/27 02:41:09;;;;;;;;;;;;;;;9.73;100.00;100111.14;1685843;85;20231;-84
2022/10/27 02:43:35;;;;;;;;;;;;;;;9.72;100.00;100112.05;1685849;85;20234;-83
2022/10/27 02:46:01;;;;;;;;;;;;;;;9.70;100.00;100113.40;1685991;85;20992;-82
2022/10/27 02:48:28;;;;;;;;;;;;;;;9.71;100.00;100120.36;1685784;85;21136;-86
2022/10/27 02:50:55;;;;;;;;;;;;;;;9.71;100.00;100109.85;1686057;84;21507;-85
2022/10/27 02:53:21;;;;;;;;;;;;;;;9.71;100.00;100110.31;1685803;85;20206;-86
2022/10/27 02:55:47;;;;;;;;;;;;;;;9.72;100.00;100116.84;1685803;85;20198;-81
2022/10/27 02:58:13;;;;;;;;;;;;;;;9.72;100.00;100114.68;1685801;85;20231;-85
2022/10/27 03:00:41;;;;;;;;;;;;;;;9.72;100.00;100116.00;1685820;85;20215;-85
2022/10/27 03:03:08;;;;;;;;;;;;;;;9.72;100.00;100114.22;1685508;84;22318;-83
2022/10/27 03:05:34;;;;;;;;;;;;;;;9.72;100.00;100114.68;1685781;84;21032;-85
2022/10/27 03:08:01;;;;;;;;;;;;;;;9.73;100.00;100122.96;1686057;85;20306;-85
2022/10/27 03:10:27;;;;;;;;;;;;;;;9.75;100.00;100123.78;1685838;84;20235;-85
2022/10/27 03:12:53;;;;;;;;;;;;;;;9.77;100.00;100120.70;1685950;85;20218;-85
2022/10/27 03:15:19;;;;;;;;;;;;;;;9.79;100.00;100125.47;1685781;85;21118;-84
2022/10/27 03:17:47;;;;;;;;;;;;;;;9.76;100.00;100128.16;1685709;85;20137;-84
2022/10/27 03:20:14;;;;;;;;;;;;;;;9.75;100.00;100127.73;1685679;85;20478;-85
2022/10/27 03:22:41;;;;;;;;;;;;;;;9.73;100.00;100131.70;1685761;84;20514;-85
2022/10/27 03:25:09;;;;;;;;;;;;;;;9.76;100.00;100130.78;1686063;85;20206;-85
2022/10/27 03:27:38;;;;;;;;;;;;;;;9.79;100.00;100129.41;1685926;84;21176;-83
2022/10/27 03:30:06;;;;;;;;;;;;;;;9.82;100.00;100133.29;1685924;85;20143;-81
2022/10/27 03:32:33;;;;;;;;;;;;;;;9.82;100.00;100139.41;1685937;84;20218;-84
2022/10/27 03:34:59;;;;;;;;;;;;;;;9.81;100.00;100140.29;1686038;84;20172;-85
2022/10/27 03:37:26;;;;;;;;;;;;;;;9.81;100.00;100136.80;1685905;85;20146;-83
2022/10/27 03:39:53;;;;;;;;;;;;;;;9.80;100.00;100135.06;1685574;84;21259;-84
2022/10/27 03:42:19;;;;;;;;;;;;;;;9.80;100.00;100141.63;1685737;85;20210;-82
2022/10/27 03:44:46;;;;;;;;;;;;;;;9.80;100.00;100142.95;1685848;85;20164;-84
2022/10/27 03:47:12;;;;;;;;;;;;;;;9.81;100.00;100148.63;1685919;85;20211;-86
2022/10/27 03:49:40;;;;;;;;;;;;;;;9.79;100.00;100145.17;1685914;84;20211;-85
2022/10/27 03:52:06;;;;;;;;;;;;;;;9.78;100.00;100150.86;1685977;85;21106;-83
2022/10/27 03:54:32;;;;;;;;;;;;;;;9.76;100.00;100145.23;1685681;85;20198;-86
2022/10/27 03:56:58;;;;;;;;;;;;;;;9.74;100.00;100147.04;1685968;85;20812;-84
2022/10/27 03:59:25;;;;;;;;;;;;;;;9.73;100.00;100145.30;1685750;84;20229;-83
2022/10/27 04:01:51;;;;;;;;;;;;;;;9.71;100.00;100147.09;1685716;85;20164;-85
2022/10/27 04:04:18;;;;;;;;;;;;;;;9.69;100.00;100143.64;1685763;84;21106;-87
2022/10/27 04:06:44;;;;;;;;;;;;;;;9.69;100.00;100150.22;1685907;85;20227;-84
2022/10/27 04:09:11;;;;;;;;;;;;;;;9.69;100.00;100152.84;1685858;84;20515;-85
2022/10/27 04:11:37;;;;;;;;;;;;;;;9.69;100.00;100152.84;1685737;85;20214;-85
2022/10/27 04:14:05;;;;;;;;;;;;;;;9.70;100.00;100155.87;1685686;84;20466;-85
2022/10/27 04:16:31;;;;;;;;;;;;;;;9.71;100.00;100164.18;1685784;85;21141;-80
2022/10/27 04:18:58;;;;;;;;;;;;;;;9.68;100.00;100155.89;1685750;85;20185;-86
2022/10/27 04:21:24;;;;;;;;;;;;;;;9.67;100.00;100161.61;1685733;85;20177;-86
2022/10/27 04:23:51;;;;;;;;;;;;;;;9.65;100.00;100163.41;1685737;85;20202;-85
2022/10/27 04:26:18;;;;;;;;;;;;;;;9.63;100.00;100162.58;1685811;85;20234;-83
2022/10/27 04:28:44;;;;;;;;;;;;;;;9.62;100.00;100163.47;1685645;85;21163;-85
2022/10/27 04:31:11;;;;;;;;;;;;;;;9.63;100.00;100169.16;1685646;85;20148;-84
2022/10/27 04:33:38;;;;;;;;;;;;;;;9.62;100.00;100167.41;1685742;85;20217;-85
2022/10/27 04:36:05;;;;;;;;;;;;;;;9.62;100.00;100168.72;1685900;85;20524;-86
2022/10/27 04:38:33;;;;;;;;;;;;;;;9.62;100.00;100170.49;1685761;84;20226;-82
2022/10/27 04:40:59;;;;;;;;;;;;;;;9.63;100.00;100174.41;1685845;85;21146;-82
2022/10/27 04:43:26;;;;;;;;;;;;;;;9.65;100.00;100177.86;1685605;84;20168;-84
2022/10/27 04:45:52;;;;;;;;;;;;;;;9.66;100.00;100180.03;1685810;85;20175;-83
2022/10/27 04:48:19;;;;;;;;;;;;;;;9.65;100.00;100177.86;1685887;85;20171;-84
2022/10/27 04:50:45;;;;;;;;;;;;;;;9.64;100.00;100182.69;1685829;84;20214;-86
2022/10/27 04:53:11;;;;;;;;;;;;;;;9.63;100.00;100183.60;1685979;84;21813;-85
2022/10/27 04:55:38;;;;;;;;;;;;;;;9.62;100.00;100184.48;1685575;84;20202;-86
2022/10/27 04:58:04;;;;;;;;;;;;;;;9.61;100.00;100185.38;1685811;85;20261;-85
2022/10/27 05:00:30;;;;;;;;;;;;;;;9.61;100.00;100198.50;1685651;85;20165;-83
2022/10/27 05:02:57;;;;;;;;;;;;;;;9.60;100.00;100196.80;1685956;85;20449;-78
2022/10/27 05:05:25;;;;;;;;;;;;;;;9.61;100.00;100197.19;1685525;84;21809;-87
2022/10/27 05:07:56;;;;;;;;;;;;;;;9.63;100.00;100199.37;1685702;85;20238;-86
2022/10/27 05:10:22;;;;;;;;;;;;;;;9.65;100.00;100202.83;1685860;84;20258;-83
2022/10/27 05:12:49;;;;;;;;;;;;;;;9.63;100.00;100205.94;1685831;84;20198;-84
2022/10/27 05:15:16;;;;;;;;;;;;;;;9.60;100.00;100199.42;1685688;85;20223;-85
2022/10/27 05:17:43;;;;;;;;;;;;;;;9.60;100.00;100204.67;1685737;85;21142;-85
2022/10/27 05:20:10;;;;;;;;;;;;;;;9.62;100.00;100206.81;1685892;84;20161;-87
2022/10/27 05:22:37;;;;;;;;;;;;;;;9.62;100.00;100206.81;1685827;84;20547;-87
2022/10/27 05:25:04;;;;;;;;;;;;;;;9.64;100.00;100206.79;1685606;84;20243;-86
2022/10/27 05:27:31;;;;;;;;;;;;;;;9.67;100.00;100208.05;1685836;85;20203;-86
2022/10/27 05:29:57;;;;;;;;;;;;;;;9.67;100.00;100211.53;1658238;85;21150;-85
2022/10/27 05:32:24;;;;;;;;;;;;;;;9.70;100.00;100214.98;1685621;85;20230;-86
2022/10/27 05:34:51;;;;;;;;;;;;;;;9.71;100.00;100214.11;1685683;84;20513;-85
2022/10/27 05:37:17;;;;;;;;;;;;;;;9.71;100.00;100211.48;1685866;84;20658;-85
2022/10/27 05:39:44;;;;;;;;;;;;;;;9.73;100.00;100217.56;1685769;85;21134;-83
2022/10/27 05:42:11;;;;;;;;;;;;;;;9.73;100.00;100222.81;1685704;85;21248;-83
2022/10/27 05:44:38;;;;;;;;;;;;;;;9.73;100.00;100230.70;1685589;85;20172;-84
2022/10/27 05:47:04;;;;;;;;;;;;;;;9.75;100.00;100235.05;1685629;85;20210;-87
2022/10/27 05:49:31;;;;;;;;;;;;;;;9.77;100.00;100236.33;1685696;84;20427;-87
2022/10/27 05:51:57;;;;;;;;;;;;;;;9.78;100.00;100234.10;1685674;85;20202;-85
2022/10/27 05:54:24;;;;;;;;;;;;;;;9.79;100.00;100231.91;1685814;85;21053;-84
2022/10/27 05:56:50;;;;;;;;;;;;;;;9.81;100.00;100234.05;1685691;85;20230;-86
2022/10/27 05:59:17;;;;;;;;;;;;;;;9.81;100.00;100237.53;1685655;85;20144;-85
2022/10/27 06:01:43;;;;;;;;;;;;;;;9.80;100.00;100243.70;1685653;85;20207;-86
2022/10/27 06:04:09;;;;;;;;;;;;;;;9.79;100.00;100242.42;1685774;84;20170;-86
2022/10/27 06:06:36;;;;;;;;;;;;;;;9.81;100.00;100249.36;1683973;85;21214;-86
2022/10/27 06:09:03;;;;;;;;;;;;;;;9.83;100.00;100245.39;1686062;85;20630;-81
2022/10/27 06:11:29;;;;;;;;;;;;;;;9.82;100.00;100251.56;1686639;85;20278;-79
2022/10/27 06:13:56;;;;;;;;;;;;;;;9.82;100.00;100255.50;1687035;85;20104;-83
2022/10/27 06:16:24;;;;;;;;;;;;;;;9.83;100.00;100261.16;1684449;85;20141;-85
2022/10/27 06:18:52;;;;;;;;;;;;;;;9.86;100.00;100259.79;1683779;85;21138;-86
2022/10/27 06:21:20;;;;;;;;;;;;;;;9.89;100.00;100271.56;1683561;85;20226;-84
2022/10/27 06:23:49;;;;;;;;;;;;;;;9.91;100.00;100273.70;1683641;85;20219;-85
2022/10/27 06:26:15;;;;;;;;;;;;;;;9.89;100.00;100268.94;1683862;85;20572;-84
2022/10/27 06:28:42;;;;;;;;;;;;;;;9.89;100.00;100274.19;1683939;85;20147;-86
2022/10/27 06:31:08;;;;;;;;;;;;;;;9.89;100.00;100275.50;1684181;85;20792;-86
2022/10/27 06:33:35;;;;;;;;;;;;;;;9.84;100.00;100278.67;1683899;85;20548;-87
2022/10/27 06:36:02;;;;;;;;;;;;;;;9.81;100.00;100276.09;1683668;85;20286;-79
2022/10/27 06:38:28;;;;;;;;;;;;;;;9.79;100.00;100281.84;1683835;85;20682;-83
2022/10/27 06:40:55;;;;;;;;;;;;;;;9.77;100.00;100279.70;1683818;85;20198;-84
2022/10/27 06:43:22;;;;;;;;;;;;;;;9.76;100.00;100284.06;1683793;85;21778;-86
2022/10/27 06:45:49;;;;;;;;;;;;;;;9.78;100.00;100285.34;1683675;85;20202;-85
2022/10/27 06:48:15;;;;;;;;;;;;;;;9.79;100.00;100297.15;1684162;85;20255;-86
2022/10/27 06:50:43;;;;;;;;;;;;;;;9.79;100.00;100296.30;1683446;83;20230;-84
2022/10/27 06:53:10;;;;;;;;;;;;;;;9.77;100.00;100290.20;1683728;85;20239;-85
2022/10/27 06:55:37;;;;;;;;;;;;;;;9.75;100.00;100303.80;1683839;85;21191;-86
2022/10/27 06:58:04;;;;;;;;;;;;;;;9.76;100.00;100298.97;1684000;85;20600;-85
2022/10/27 07:00:30;;;;;;;;;;;;;;;9.77;100.00;100304.66;1683825;85;20545;-86
2022/10/27 07:02:57;;;;;;;;;;;;;;;9.77;100.00;100303.34;1683931;85;20230;-86
2022/10/27 07:05:23;;;;;;;;;;;;;;;9.74;100.00;100299.45;1687126;84;20214;-86
2022/10/27 07:07:51;;;;;;;;;;;;;;;9.73;100.00;100305.14;1691482;84;21500;-84
2022/10/27 07:10:17;;;;;;;;;;;;;;;9.74;100.00;100309.97;1691076;84;20148;-85
2022/10/27 07:12:53;;;;;;;;;;;;;;;9.78;100.00;100310.31;1691113;83;20147;-85
2022/10/27 07:15:21;;;;;;;;;;;;;;;9.79;100.00;100309.44;1691092;84;20234;-85
2022/10/27 07:17:47;;;;;;;;;;;;;;;9.80;100.00;100316.41;1691276;84;20266;-85
2022/10/27 07:20:14;;;;;;;;;;;;;;;9.82;100.00;100315.50;1691109;84;21133;-86
2022/10/27 07:22:41;;;;;;;;;;;;;;;9.81;100.00;100315.52;1691054;84;20167;-85
2022/10/27 07:25:07;;;;;;;;;;;;;;;9.82;100.00;100324.69;1691484;83;20229;-85
2022/10/27 07:27:34;;;;;;;;;;;;;;;9.82;100.00;100323.84;1691343;84;20205;-86
2022/10/27 07:30:00;;;;;;;;;;;;;;;9.81;100.00;100315.52;1691334;84;20207;-85
2022/10/27 07:32:26;;;;;;;;;;;;;;;9.82;100.00;100323.84;1691444;84;21106;-85
2022/10/27 07:34:53;;;;;;;;;;;;;;;9.86;100.00;100322.88;1691128;84;20682;-85
2022/10/27 07:37:19;;;;;;;;;;;;;;;9.90;100.00;100323.25;1691248;84;20498;-85
2022/10/27 07:39:45;;;;;;;;;;;;;;;9.90;100.00;100329.82;1691178;84;20213;-86
2022/10/27 07:42:12;;;;;;;;;;;;;;;9.88;99.97;100330.73;1691220;84;20239;-86
2022/10/27 07:44:38;;;;;;;;;;;;;;;9.88;100.00;100335.53;1691312;84;21131;-86
2022/10/27 07:47:04;;;;;;;;;;;;;;;9.89;100.00;100330.70;1691309;84;20218;-84
2022/10/27 07:49:31;;;;;;;;;;;;;;;9.93;100.00;100328.87;1691176;84;20400;-84
2022/10/27 07:51:58;;;;;;;;;;;;;;;9.94;100.00;100322.28;1691309;84;20143;-86
2022/10/27 07:54:24;;;;;;;;;;;;;;;9.98;99.98;100325.26;1691158;84;20186;-83
2022/10/27 07:56:51;;;;;;;;;;;;;;;10.03;99.89;100333.92;1691165;84;21162;-87
2022/10/27 07:59:18;;;;;;;;;;;;;;;10.08;99.97;100335.61;1691226;84;20197;-86
2022/10/27 08:01:44;;;;;;;;;;;;;;;10.11;99.58;100330.30;1691263;84;20207;-84
2022/10/27 08:04:10;;;;;;;;;;;;;;;10.12;99.49;100330.70;1691295;84;20238;-86
2022/10/27 08:06:36;;;;;;;;;;;;;;;10.15;99.43;100330.64;1685188;84;20437;-85
2022/10/27 08:09:04;;;;;;;;;;;;;;;10.21;99.33;100323.95;1683906;85;22126;-83
2022/10/27 08:11:30;;;;;;;;;;;;;;;10.26;99.20;100326.05;1683783;85;20167;-86
2022/10/27 08:13:57;;;;;;;;;;;;;;;10.32;99.08;100331.22;1683815;84;20240;-84
2022/10/27 08:16:23;;;;;;;;;;;;;;;10.41;99.08;100333.64;1683809;85;20207;-86
2022/10/27 08:18:49;;;;;;;;;;;;;;;10.47;98.71;100337.05;1684045;85;20495;-87
2022/10/27 08:21:16;;;;;;;;;;;;;;;10.51;98.37;100340.05;1683732;85;21295;-86
2022/10/27 08:23:43;;;;;;;;;;;;;;;10.51;97.74;100345.31;1683793;85;20151;-85
2022/10/27 08:26:09;;;;;;;;;;;;;;;10.46;97.30;100342.77;1683632;85;20175;-84
2022/10/27 08:28:35;;;;;;;;;;;;;;;10.45;97.39;100343.66;1684015;85;20207;-85
2022/10/27 08:31:02;;;;;;;;;;;;;;;10.46;97.05;100339.28;1683825;85;20214;-85
2022/10/27 08:33:28;;;;;;;;;;;;;;;10.47;97.22;100343.62;1683705;83;21751;-84
2022/10/27 08:35:54;;;;;;;;;;;;;;;10.48;97.09;100350.62;1683602;85;20246;-85
2022/10/27 08:38:21;;;;;;;;;;;;;;;10.51;97.07;100349.26;1683769;85;20144;-84
2022/10/27 08:41:11;;;;;;;;;;;;;;;10.57;97.06;100348.67;1683836;83;20426;-83
2022/10/27 08:43:58;;;;;;;;;;;;;;;10.64;97.07;100357.31;1683792;85;20176;-84
2022/10/27 08:46:43;;;;;;;;;;;;;;;10.71;97.00;100361.53;1683509;85;21519;-83
2022/10/27 08:49:34;;;;;;;;;;;;;;;10.77;96.11;100356.58;1683525;85;20194;-85
2022/10/27 08:52:07;;;;;;;;;;;;;;;10.80;95.62;100355.66;1683684;85;20255;-83
2022/10/27 08:54:33;;;;;;;;;;;;;;;10.80;95.46;100360.92;1683686;85;21146;-85
2022/10/27 08:57:01;;;;;;;;;;;;;;;10.80;95.61;100355.66;1683967;84;20262;-86
2022/10/27 08:59:30;;;;;;;;;;;;;;;10.85;95.41;100359.91;1682247;85;21780;-86
2022/10/27 09:02:15;;;;;;;;;;;;;;;10.88;94.88;100360.30;1683800;85;20215;-83
2022/10/27 09:04:54;;;;;;;;;;;;;;;10.87;94.62;100358.09;1683884;85;20206;-85
2022/10/27 09:07:38;;;;;;;;;;;;;;;10.91;94.70;100358.47;1685643;84;20464;-86
2022/10/27 09:10:14;;;;;;;;;;;;;;;10.96;94.63;100364.92;1685815;84;20202;-85
2022/10/27 09:12:50;;;;;;;;;;;;;;;10.97;94.74;100365.34;1657131;85;21274;-86
2022/10/27 09:15:32;;;;;;;;;;;;;;;10.97;94.54;100364.89;1685789;85;20534;-84
2022/10/27 09:18:11;;;;;;;;;;;;;;;10.94;94.13;100364.09;1685812;85;20519;-84
2022/10/27 09:20:43;;;;;;;;;;;;;;;10.91;94.20;100366.79;1685392;84;20147;-84
2022/10/27 09:23:15;;;;;;;;;;;;;;;10.89;94.61;100374.75;1684374;84;20222;-82
2022/10/27 09:25:42;;;;;;;;;;;;;;;10.91;94.92;100374.69;1685715;85;21203;-85
2022/10/27 09:28:17;;;;;;;;;;;;;;;10.94;94.76;100371.98;1685671;85;20202;-87
2022/10/27 09:30:44;;;;;;;;;;;;;;;10.96;94.37;100378.08;1685988;85;20555;-85
2022/10/27 09:33:13;;;;;;;;;;;;;;;10.97;93.89;100375.42;1685792;84;20214;-78
2022/10/27 09:35:39;;;;;;;;;;;;;;;10.95;94.15;100370.64;1658606;85;20198;-83
2022/10/27 09:38:16;;;;;;;;;;;;;;;10.97;94.30;100375.87;1684282;85;21229;-82
2022/10/27 09:40:43;;;;;;;;;;;;;;;10.99;93.51;100377.16;1685548;85;20559;-83
2022/10/27 09:43:09;;;;;;;;;;;;;;;10.98;93.27;100376.31;1685709;84;20255;-85
2022/10/27 09:45:36;;;;;;;;;;;;;;;10.96;93.24;100379.40;1685679;85;20202;-85
2022/10/27 09:48:04;;;;;;;;;;;;;;;10.94;93.61;100379.89;1658554;85;20202;-85
2022/10/27 09:50:46;;;;;;;;;;;;;;;10.94;93.48;100374.62;1685549;84;21233;-85
2022/10/27 09:53:35;;;;;;;;;;;;;;;10.98;93.36;100373.67;1686035;84;20144;-85
2022/10/27 09:56:02;;;;;;;;;;;;;;;11.03;93.07;100377.06;1685630;85;20175;-82
2022/10/27 09:58:28;;;;;;;;;;;;;;;11.10;92.93;100374.70;1685536;85;20429;-83
2022/10/27 10:00:59;;;;;;;;;;;;;;;11.18;92.73;100377.59;1685900;85;20180;-85
2022/10/27 10:03:25;;;;;;;;;;;;;;;11.23;92.01;100371.77;1686182;85;21116;-85
2022/10/27 10:05:59;;;;;;;;;;;;;;;11.26;91.32;100371.70;1686929;84;20226;-85
2022/10/27 10:08:26;;;;;;;;;;;;;;;11.27;91.91;100375.63;1691259;84;20147;-82
2022/10/27 10:10:55;;;;;;;;;;;;;;;11.31;91.14;100374.66;1691246;84;20277;-86
2022/10/27 10:13:22;;;;;;;;;;;;;;;11.32;90.92;100378.16;1691554;84;20611;-86
2022/10/27 10:16:07;;;;;;;;;;;;;;;11.32;90.42;100379.47;1691212;84;21974;-84
2022/10/27 10:18:34;;;;;;;;;;;;;;;11.32;90.38;100380.78;1691535;83;21005;-83
2022/10/27 10:21:04;;;;;;;;;;;;;;;11.34;90.78;100375.02;1691433;84;20505;-87
2022/10/27 10:23:35;;;;;;;;;;;;;;;11.42;90.91;100378.34;1690160;84;20217;-83
2022/10/27 10:26:04;;;;;;;;;;;;;;;11.50;90.64;100368.95;1691287;84;20210;-87
2022/10/27 10:28:36;;;;;;;;;;;;;;;11.56;90.35;100377.14;1691641;84;21101;-85
2022/10/27 10:31:04;;;;;;;;;;;;;;;11.57;88.94;100381.52;1691169;84;20246;-83
2022/10/27 10:33:34;;;;;;;;;;;;;;;11.56;89.09;100379.77;1691130;84;20139;-82
2022/10/27 10:36:02;;;;;;;;;;;;;;;11.58;89.52;100374.00;1691501;84;20608;-85
2022/10/27 10:38:34;;;;;;;;;;;;;;;11.62;89.51;100377.86;1661117;84;20250;-85
2022/10/27 10:41:12;;;;;;;;;;;;;;;11.66;88.74;100368.09;1691275;84;20214;-82
2022/10/27 10:43:39;;;;;;;;;;;;;;;11.70;88.66;100373.26;1691195;84;20202;-87
2022/10/27 10:46:08;;;;;;;;;;;;;;;11.73;88.11;100366.17;1691214;84;20226;-85
2022/10/27 10:48:49;;;;;;;;;;;;;;;11.76;87.84;100368.27;1690005;84;20218;-85
2022/10/27 10:51:24;;;;;;;;;;;;;;;11.78;88.28;100363.81;1691410;84;20194;-81
2022/10/27 10:53:51;;;;;;;;;;;;;;;11.87;88.35;100363.59;1691302;84;21065;-86
2022/10/27 10:56:24;;;;;;;;;;;;;;;11.98;88.19;100365.11;1691036;84;20135;-82
2022/10/27 10:59:10;;;;;;;;;;;;;;;12.07;87.91;100372.78;1690421;84;20233;-87
2022/10/27 11:02:07;;;;;;;;;;;;;;;12.16;86.91;100367.24;1691299;84;20210;-85
2022/10/27 11:04:41;;;;;;;;;;;;;;;12.22;85.92;100364.88;1691435;84;20194;-86
2022/10/27 11:07:25;;;;;;;;;;;;;;;12.28;84.91;100366.03;1691340;84;21121;-83
2022/10/27 11:10:07;;;;;;;;;;;;;;;12.33;84.79;100365.91;1692059;84;20206;-82
2022/10/27 11:12:57;;;;;;;;;;;;;;;12.42;84.42;100366.95;1693855;83;20163;-85
2022/10/27 11:15:28;;;;;;;;;;;;;;;12.56;84.00;100367.91;1692114;84;20226;-87
2022/10/27 11:18:01;;;;;;;;;;;;;;;12.63;83.90;100365.02;1691536;84;20292;-82
2022/10/27 11:20:30;;;;;;;;;;;;;;;12.72;83.21;100351.14;1691085;84;21127;-85
2022/10/27 11:22:57;;;;;;;;;;;;;;;12.77;82.81;100353.19;1691488;84;20337;-85
2022/10/27 11:25:27;;;;;;;;;;;;;;;12.76;81.08;100361.57;1691093;84;20206;-83
2022/10/27 11:28:15;;;;;;;;;;;;;;;12.68;81.19;100358.29;1690343;83;20198;-84
2022/10/27 11:30:48;;;;;;;;;;;;;;;12.61;80.84;100369.48;1691273;83;20219;-85
2022/10/27 11:33:25;;;;;;;;;;;;;;;12.54;81.31;100372.34;1691297;84;21631;-85
2022/10/27 11:36:10;;;;;;;;;;;;;;;12.47;81.13;100374.29;1691177;84;20231;-87
2022/10/27 11:38:52;;;;;;;;;;;;;;;12.44;81.29;100381.00;1691077;84;20214;-85
2022/10/27 11:41:42;;;;;;;;;;;;;;;12.44;81.40;100377.89;1691061;84;20704;-82
2022/10/27 11:44:19;;;;;;;;;;;;;;;12.44;81.98;100382.32;1691472;84;20160;-85
2022/10/27 11:47:01;;;;;;;;;;;;;;;12.44;81.66;100379.22;1691275;84;21895;-86
2022/10/27 11:49:37;;;;;;;;;;;;;;;12.40;80.68;100379.34;1690078;84;20219;-86
2022/10/27 11:52:17;;;;;;;;;;;;;;;12.35;80.59;100382.56;1691136;84;20237;-82
2022/10/27 11:54:43;;;;;;;;;;;;;;;12.29;80.46;100384.05;1691037;84;20190;-84
2022/10/27 11:57:23;;;;;;;;;;;;;;;12.24;80.71;100386.37;1661936;84;20225;-86
2022/10/27 12:00:05;;;;;;;;;;;;;;;12.18;81.04;100381.72;1691350;84;21280;-85
2022/10/27 12:02:46;;;;;;;;;;;;;;;12.12;81.79;100393.31;1689824;84;20143;-84
2022/10/27 12:05:19;;;;;;;;;;;;;;;12.10;82.02;100408.28;1691002;84;20229;-81
2022/10/27 12:08:17;;;;;;;;;;;;;;;12.09;81.93;100399.98;1691157;84;20168;-85
2022/10/27 12:11:11;;;;;;;;;;;;;;;12.08;81.76;100404.83;1691279;84;20239;-85
2022/10/27 12:13:41;;;;;;;;;;;;;;;12.05;82.01;100399.20;1691592;84;21151;-88
2022/10/27 12:16:14;;;;;;;;;;;;;;;12.06;82.25;100402.70;1691385;84;20202;-87
2022/10/27 12:18:53;;;;;;;;;;;;;;;12.07;82.28;100403.13;1691122;84;20722;-86
2022/10/27 12:21:25;;;;;;;;;;;;;;;12.11;82.24;100399.48;1690206;84;20833;-78
2022/10/27 12:23:55;;;;;;;;;;;;;;;12.14;82.21;100406.42;1661767;84;20389;-83
2022/10/27 12:26:25;;;;;;;;;;;;;;;12.13;81.75;100391.06;1691597;84;21816;-85
2022/10/27 12:28:51;;;;;;;;;;;;;;;12.13;81.95;100396.34;1683345;84;20504;-86
2022/10/27 12:31:20;;;;;;;;;;;;;;;12.12;81.65;100403.86;1691472;84;20250;-85
2022/10/27 12:33:56;;;;;;;;;;;;;;;12.13;80.83;100408.21;1691191;84;20442;-84
2022/10/27 12:36:26;;;;;;;;;;;;;;;12.12;81.06;100406.93;1691075;84;20460;-88
2022/10/27 12:39:08;;;;;;;;;;;;;;;12.12;81.01;100410.45;1691330;84;21787;-84
2022/10/27 12:41:39;;;;;;;;;;;;;;;12.13;81.42;100409.53;1690598;84;20194;-87
2022/10/27 12:44:15;;;;;;;;;;;;;;;12.13;81.70;100406.89;1690557;84;21041;-83
2022/10/27 12:46:55;;;;;;;;;;;;;;;12.15;82.00;100411.67;1688704;84;20226;-83
2022/10/27 12:49:46;;;;;;;;;;;;;;;12.16;81.22;100422.64;1655292;86;20205;-78
2022/10/27 12:52:16;;;;;;;;;;;;;;;12.15;80.92;100416.94;1666815;84;20463;-86